Seneca, California
Current Conditions -  °F | °C
As of 7:50 AM on Wednesday 26 Nov 2014 (Local Time) from KCIC Reporting Station
Scattered Clouds Scattered Clouds  
Wind Chill: 39°   Ceiling: Unl
Heat Index: 43°   Visibility: 40mi
Dew Point: 41°   Wind: 6mph
Humidity: 93%   Direction: 240°WSW
Pressure: 30.36"   Gusts: NA
Location:  40.2035°N, 121.147°W
Report Text: KCIC 261550Z 24005KT 40SM SCT180 06/05 A3036
Loading
Personal Weather Stations






























Interactive Weather Map New forecast layout! Learn more

10-Day Weather Forecast

Advertisements
Track Severe Weather on mobile